Time;durP1;ratioP1;P1;durP2;ratioP2;P2;SDS_P1;SDS_P2;PMS_P1;PMS_P2;Temp;Humidity;BMP_temperature;BMP_pressure;BME280_temperature;BME280_humidity;BME280_pressure;Samples;Min_cycle;Max_cycle;Signal;HPM_P1;HPM_P2
2023/03/25 00:00:17;;;;;;;10.38;6.60;;;;;;;8.04;83.57;94376.56;5062871;28;20199;-75
2023/03/25 00:02:46;;;;;;;16.83;7.43;;;;;;;7.95;84.35;94373.06;5053197;28;20232;-75
2023/03/25 00:05:15;;;;;;;9.73;6.18;;;;;;;7.84;84.79;94367.97;5053612;28;20228;-74
2023/03/25 00:07:42;;;;;;;12.32;7.28;;;;;;;7.87;84.27;94371.16;5058140;28;20263;-74
2023/03/25 00:10:10;;;;;;;17.60;7.32;;;;;;;7.88;84.81;94378.13;5047553;28;20604;-74
2023/03/25 00:12:37;;;;;;;10.90;7.10;;;;;;;7.81;84.55;94374.00;5042775;28;20230;-75
2023/03/25 00:15:04;;;;;;;13.20;7.22;;;;;;;7.76;84.96;94376.88;5060189;28;20301;-74
2023/03/25 00:17:31;;;;;;;13.13;7.82;;;;;;;7.74;84.56;94373.69;5051449;28;20536;-74
2023/03/25 00:19:59;;;;;;;12.65;6.40;;;;;;;7.75;84.23;94369.88;5049600;28;20256;-76
2023/03/25 00:22:27;;;;;;;11.23;6.93;;;;;;;7.80;83.55;94367.00;5051588;28;20191;-74
2023/03/25 00:24:54;;;;;;;15.85;7.93;;;;;;;7.61;84.75;94353.06;5060032;28;20666;-76
2023/03/25 00:27:21;;;;;;;15.15;7.75;;;;;;;7.52;84.75;94356.84;5050310;28;20203;-74
2023/03/25 00:29:47;;;;;;;13.18;6.90;;;;;;;7.51;85.61;94357.97;5060471;28;20670;-76
2023/03/25 00:32:16;;;;;;;12.00;6.75;;;;;;;7.48;86.12;94344.00;5058832;28;20199;-75
2023/03/25 00:34:46;;;;;;;11.95;6.53;;;;;;;7.59;85.44;94349.88;5067398;28;20234;-75
2023/03/25 00:37:16;;;;;;;15.00;7.35;;;;;;;7.52;85.55;94354.94;5069396;28;20195;-74
2023/03/25 00:39:45;;;;;;;11.50;6.68;;;;;;;7.47;86.31;94353.19;5061251;28;20748;-74
2023/03/25 00:42:12;;;;;;;11.90;7.20;;;;;;;7.51;86.57;94357.97;5057888;28;20204;-75
2023/03/25 00:44:39;;;;;;;14.55;6.40;;;;;;;7.61;86.08;94353.06;5051970;28;20204;-75
2023/03/25 00:47:06;;;;;;;13.50;6.70;;;;;;;7.60;85.79;94356.88;5055632;28;20195;-75
2023/03/25 00:49:33;;;;;;;11.63;6.65;;;;;;;7.61;85.58;94347.66;5060521;28;20873;-75
2023/03/25 00:52:00;;;;;;;14.55;7.97;;;;;;;7.64;85.17;94347.03;5064857;28;20245;-75
2023/03/25 00:54:27;;;;;;;16.58;7.70;;;;;;;7.69;85.50;94343.38;5069629;28;20309;-75
2023/03/25 00:56:55;;;;;;;11.23;6.78;;;;;;;7.70;85.95;94340.38;5063296;28;20195;-75
2023/03/25 00:59:22;;;;;;;12.15;6.60;;;;;;;7.73;85.24;94342.44;5056968;28;20203;-74
2023/03/25 01:01:52;;;;;;;14.23;6.45;;;;;;;7.70;85.44;94340.38;5053002;28;20196;-75
2023/03/25 01:04:19;;;;;;;12.52;6.35;;;;;;;7.74;85.47;94335.94;5054164;28;20211;-74
2023/03/25 01:06:50;;;;;;;14.75;7.35;;;;;;;7.79;84.44;94322.28;5056924;28;20287;-75
2023/03/25 01:09:19;;;;;;;19.65;8.13;;;;;;;7.82;83.32;94332.44;5066014;28;20281;-75
2023/03/25 01:11:48;;;;;;;13.55;6.90;;;;;;;7.78;83.93;94330.72;5053496;28;20190;-75
2023/03/25 01:14:18;;;;;;;10.20;5.97;;;;;;;7.65;85.21;94321.69;5055311;28;20235;-76
2023/03/25 01:16:45;;;;;;;11.05;5.68;;;;;;;7.71;85.18;94323.09;5055686;28;20261;-76
2023/03/25 01:19:13;;;;;;;14.32;7.28;;;;;;;7.79;83.68;94319.59;5063697;28;20262;-76
2023/03/25 01:21:41;;;;;;;11.10;6.43;;;;;;;7.59;84.43;94306.75;5064850;28;20200;-75
2023/03/25 01:24:08;;;;;;;14.00;7.60;;;;;;;7.58;85.58;94310.56;5069885;28;20248;-73
2023/03/25 01:26:35;;;;;;;14.82;7.65;;;;;;;7.56;86.27;94322.75;5067263;28;20203;-75
2023/03/25 01:29:02;;;;;;;11.82;6.72;;;;;;;7.59;85.49;94312.16;5058758;28;20256;-75
2023/03/25 01:31:30;;;;;;;17.17;6.97;;;;;;;7.69;84.41;94311.81;5051292;28;20913;-75
2023/03/25 01:33:57;;;;;;;16.08;7.28;;;;;;;7.47;85.83;94299.31;5067893;28;20238;-75
2023/03/25 01:36:24;;;;;;;11.13;6.32;;;;;;;7.47;86.85;94306.59;5054062;28;20211;-75
2023/03/25 01:38:51;;;;;;;15.48;6.50;;;;;;;7.50;87.50;94305.97;5064716;28;20217;-75
2023/03/25 01:41:19;;;;;;;16.25;6.85;;;;;;;7.48;87.49;94289.31;5057444;28;20204;-75
2023/03/25 01:44:04;;;;;;;9.73;6.32;;;;;;;7.53;86.80;94297.22;5054270;28;20205;-74
2023/03/25 01:46:32;;;;;;;11.20;6.63;;;;;;;7.43;86.38;94289.47;5051779;28;20896;-76
2023/03/25 01:49:02;;;;;;;10.93;5.97;;;;;;;7.35;87.56;94287.56;5063286;28;20208;-75
2023/03/25 01:51:32;;;;;;;13.43;7.18;;;;;;;7.31;87.36;94284.69;5051309;28;20274;-75
2023/03/25 01:53:59;;;;;;;13.85;6.47;;;;;;;7.23;87.44;94298.16;5050698;28;20756;-75
2023/03/25 01:56:30;;;;;;;10.50;6.28;;;;;;;7.24;87.37;94295.16;5053497;28;20207;-75
2023/03/25 01:59:01;;;;;;;17.88;6.75;;;;;;;7.24;87.44;94297.06;5056051;28;20622;-74
2023/03/25 02:01:30;;;;;;;11.05;6.15;;;;;;;7.24;87.42;94297.06;5052977;28;20204;-73
2023/03/25 02:04:01;;;;;;;9.05;6.18;;;;;;;7.19;87.30;94286.41;5052507;28;20218;-74
2023/03/25 02:06:33;;;;;;;18.65;7.05;;;;;;;7.12;87.68;94290.34;5057416;28;20369;-74
2023/03/25 02:09:05;;;;;;;11.77;7.00;;;;;;;7.19;87.94;94291.81;5064939;28;20260;-76
2023/03/25 02:11:32;;;;;;;14.27;7.68;;;;;;;7.31;87.55;94290.09;5066090;28;20233;-74
2023/03/25 02:14:05;;;;;;;12.55;6.60;;;;;;;7.32;87.49;94290.88;5064402;28;20279;-74
2023/03/25 02:16:39;;;;;;;14.10;6.85;;;;;;;7.20;87.56;94283.41;5056396;28;20678;-75
2023/03/25 02:19:36;;;;;;;16.98;7.18;;;;;;;7.13;87.48;94283.88;5051359;28;20301;-75
2023/03/25 02:22:40;;;;;;;11.40;6.38;;;;;;;7.06;87.55;94278.16;5053056;28;20200;-74
2023/03/25 02:25:46;;;;;;;11.27;6.22;;;;;;;6.95;87.76;94282.25;5054774;28;20195;-74
2023/03/25 02:28:24;;;;;;;13.35;6.13;;;;;;;6.91;87.70;94278.59;5014104;28;20207;-75
2023/03/25 02:31:12;;;;;;;13.93;6.88;;;;;;;6.80;88.20;94261.16;5056358;28;20203;-75
2023/03/25 02:34:00;;;;;;;13.98;6.78;;;;;;;6.88;88.23;94281.91;5057105;28;20253;-75
2023/03/25 02:36:51;;;;;;;17.85;6.85;;;;;;;6.82;88.14;94277.78;5048947;28;20204;-74
2023/03/25 02:39:26;;;;;;;16.35;10.27;;;;;;;7.06;86.98;94271.97;5049688;28;20294;-74
2023/03/25 02:42:01;;;;;;;17.50;11.05;;;;;;;6.88;87.72;94270.34;5062000;28;20211;-75
2023/03/25 02:44:34;;;;;;;17.05;10.30;;;;;;;6.88;88.17;94276.53;5049952;28;20199;-75
2023/03/25 02:47:04;;;;;;;16.33;10.70;;;;;;;6.78;88.18;94276.81;5052419;28;20196;-75
2023/03/25 02:49:35;;;;;;;18.92;11.02;;;;;;;6.84;88.71;94269.38;5058301;28;20195;-75
2023/03/25 02:52:07;;;;;;;17.58;10.77;;;;;;;6.81;88.94;94265.44;5062976;28;20236;-75
2023/03/25 02:54:40;;;;;;;16.20;10.57;;;;;;;6.86;89.46;94265.28;5066388;28;20227;-75
2023/03/25 02:57:09;;;;;;;17.08;10.60;;;;;;;6.85;88.94;94265.56;5059385;28;20273;-76
2023/03/25 02:59:38;;;;;;;13.35;6.35;;;;;;;6.82;89.14;94256.25;5052260;28;20198;-76
2023/03/25 03:02:08;;;;;;;13.15;6.25;;;;;;;6.79;89.60;94256.88;5067529;28;20191;-74
2023/03/25 03:04:49;;;;;;;13.07;6.28;;;;;;;6.79;89.62;94259.56;5065431;28;20744;-75
2023/03/25 03:07:23;;;;;;;13.27;6.47;;;;;;;6.86;89.06;94262.56;5057063;28;20198;-75
2023/03/25 03:10:03;;;;;;;11.88;6.25;;;;;;;6.86;88.42;94259.09;5057966;28;20210;-75
2023/03/25 03:12:42;;;;;;;19.70;6.40;;;;;;;6.80;88.68;94255.78;5055926;28;20203;-75
2023/03/25 03:15:20;;;;;;;12.00;6.18;;;;;;;6.69;88.89;94247.19;5054780;28;20686;-75
2023/03/25 03:18:00;;;;;;;20.30;6.20;;;;;;;6.66;89.18;94247.81;5054471;28;20239;-75
2023/03/25 03:20:38;;;;;;;15.43;6.10;;;;;;;6.68;88.80;94260.97;5057799;28;20212;-75
2023/03/25 03:23:11;;;;;;;13.57;6.05;;;;;;;6.68;89.94;94260.97;5066984;28;20191;-75
2023/03/25 03:25:48;;;;;;;9.50;5.40;;;;;;;6.59;89.31;94254.72;5068050;28;20203;-75
2023/03/25 03:28:23;;;;;;;11.98;6.25;;;;;;;6.50;89.60;94254.72;5055702;28;20221;-75
2023/03/25 03:30:57;;;;;;;9.43;5.82;;;;;;;6.42;90.98;94264.31;5062054;28;20290;-74
2023/03/25 03:33:29;;;;;;;14.70;6.35;;;;;;;6.27;91.43;94262.06;5058243;28;20202;-75
2023/03/25 03:36:00;;;;;;;15.75;6.30;;;;;;;6.36;91.23;94265.56;5049951;28;20234;-74
2023/03/25 03:38:34;;;;;;;12.73;6.07;;;;;;;6.46;91.18;94263.72;5056578;28;20200;-76
2023/03/25 03:41:06;;;;;;;15.02;6.65;;;;;;;6.52;90.77;94262.47;5061475;28;20207;-75
2023/03/25 03:43:40;;;;;;;12.13;6.22;;;;;;;6.50;90.91;94259.31;5061438;28;20207;-75
2023/03/25 03:46:13;;;;;;;13.52;6.28;;;;;;;6.35;90.46;94263.19;5055941;28;20207;-75
2023/03/25 03:48:45;;;;;;;13.07;6.10;;;;;;;6.37;91.07;94272.53;5054640;28;20233;-75
2023/03/25 03:51:17;;;;;;;12.63;5.75;;;;;;;6.48;91.60;94266.88;5068169;28;20199;-75
2023/03/25 03:53:50;;;;;;;12.32;6.47;;;;;;;6.46;90.64;94255.63;5051258;28;20211;-75
2023/03/25 03:56:24;;;;;;;11.10;5.65;;;;;;;6.40;90.72;94271.13;5059392;28;20288;-75
2023/03/25 03:58:58;;;;;;;12.57;6.15;;;;;;;6.39;90.34;94264.97;5054910;28;20207;-75
2023/03/25 04:01:33;;;;;;;14.23;7.50;;;;;;;6.31;90.40;94257.63;5054715;28;20560;-75
2023/03/25 04:04:04;;;;;;;10.00;6.53;;;;;;;6.26;90.88;94263.16;5056010;28;20289;-75
2023/03/25 04:06:37;;;;;;;11.35;6.07;;;;;;;6.28;90.53;94268.22;5053779;28;20306;-74
2023/03/25 04:09:17;;;;;;;10.57;5.50;;;;;;;6.24;89.41;94262.69;5059970;28;20636;-74
2023/03/25 04:11:53;;;;;;;8.70;5.43;;;;;;;6.30;90.18;94271.38;5060538;28;20207;-74
2023/03/25 04:14:20;;;;;;;8.82;5.35;;;;;;;6.25;90.44;94269.63;5060978;28;20194;-75
2023/03/25 04:16:47;;;;;;;11.80;6.35;;;;;;;6.28;90.59;94265.53;5054152;28;20272;-74
2023/03/25 04:19:17;;;;;;;21.50;11.27;;;;;;;6.29;90.83;94265.22;5054933;28;20243;-75
2023/03/25 04:21:44;;;;;;;12.88;5.80;;;;;;;6.33;91.49;94266.19;5056325;28;20230;-75
2023/03/25 04:24:11;;;;;;;11.38;6.10;;;;;;;6.38;90.78;94267.97;5061007;28;20244;-75
2023/03/25 04:26:37;;;;;;;16.63;5.60;;;;;;;6.41;91.39;94265.44;5055175;28;20722;-75
2023/03/25 04:29:06;;;;;;;13.20;5.43;;;;;;;6.59;90.20;94262.81;5055892;28;20191;-75
2023/03/25 04:31:33;;;;;;;11.27;6.40;;;;;;;6.73;88.81;94263.50;5055416;28;20740;-75
2023/03/25 04:34:01;;;;;;;13.52;6.53;;;;;;;6.84;88.39;94259.41;5052958;28;20200;-74
2023/03/25 04:36:32;;;;;;;16.02;7.47;;;;;;;6.73;88.59;94263.50;5058228;28;20227;-75
2023/03/25 04:39:00;;;;;;;11.63;6.95;;;;;;;6.89;89.33;94264.66;5053624;28;21594;-74
2023/03/25 04:41:27;;;;;;;13.18;7.28;;;;;;;7.54;89.35;94265.69;5057118;28;20206;-75
2023/03/25 04:43:54;;;;;;;15.00;7.32;;;;;;;8.58;85.05;94263.63;5050672;28;20295;-74
2023/03/25 04:46:22;;;;;;;13.38;7.35;;;;;;;9.67;77.87;94264.41;5049109;28;20621;-76
2023/03/25 04:48:49;;;;;;;20.58;7.72;;;;;;;10.62;74.72;94255.41;5059600;28;20716;-75
2023/03/25 04:51:15;;;;;;;18.02;7.70;;;;;;;11.02;72.11;94263.66;5057635;28;20207;-75
2023/03/25 04:53:43;;;;;;;13.60;7.82;;;;;;;11.96;70.94;94253.34;5053659;28;20265;-75
2023/03/25 04:56:15;;;;;;;13.35;6.72;;;;;;;12.92;67.95;94253.16;5056618;28;20231;-75
2023/03/25 04:58:42;;;;;;;12.30;6.78;;;;;;;13.52;63.98;94249.16;5060458;28;20297;-75
2023/03/25 05:01:16;;;;;;;14.57;8.13;;;;;;;14.34;61.61;94253.56;5053297;28;20256;-75
2023/03/25 05:03:44;;;;;;;13.07;7.65;;;;;;;15.34;58.86;94244.38;5066063;28;20202;-74
2023/03/25 05:06:11;;;;;;;14.88;8.13;;;;;;;15.89;55.96;94238.19;5058577;28;20215;-74
2023/03/25 05:08:38;;;;;;;14.27;7.15;;;;;;;15.45;55.85;94239.88;5060707;28;20926;-75
2023/03/25 05:11:05;;;;;;;14.63;7.30;;;;;;;15.74;55.42;94241.09;5046690;28;20199;-75
2023/03/25 05:13:32;;;;;;;13.80;6.75;;;;;;;16.31;53.28;94243.41;5052995;28;20619;-75
2023/03/25 05:15:59;;;;;;;13.95;7.35;;;;;;;17.17;51.49;94228.66;5053127;28;20235;-75
2023/03/25 05:18:26;;;;;;;15.02;6.68;;;;;;;18.02;49.80;94222.97;5062294;28;20224;-74
2023/03/25 05:20:55;;;;;;;11.80;6.95;;;;;;;18.78;47.62;94231.06;5063683;28;20207;-75
2023/03/25 05:23:22;;;;;;;14.73;9.10;;;;;;;18.80;47.46;94228.72;5058437;28;20199;-74
2023/03/25 05:25:51;;;;;;;16.27;9.65;;;;;;;18.69;47.03;94225.97;5070087;28;20593;-75
2023/03/25 05:28:18;;;;;;;21.17;9.85;;;;;;;19.13;45.62;94225.59;5061845;28;20208;-75
2023/03/25 05:30:46;;;;;;;13.15;8.70;;;;;;;19.51;44.97;94223.28;5063327;28;20845;-75
2023/03/25 05:33:15;;;;;;;17.92;9.50;;;;;;;20.04;43.63;94222.41;5059157;28;20207;-74
2023/03/25 05:35:43;;;;;;;15.73;8.70;;;;;;;19.04;44.57;94222.47;5067166;28;20243;-76
2023/03/25 05:38:12;;;;;;;19.67;9.38;;;;;;;19.01;45.36;94223.25;5052328;28;20813;-75
2023/03/25 05:40:40;;;;;;;19.88;8.68;;;;;;;19.29;44.61;94227.19;5053593;28;20231;-75
2023/03/25 05:43:07;;;;;;;18.55;9.52;;;;;;;20.07;43.27;94222.41;5060509;28;20211;-75
2023/03/25 05:45:35;;;;;;;20.00;9.32;;;;;;;20.67;42.18;94220.56;5066196;28;20211;-75
2023/03/25 05:48:02;;;;;;;16.98;9.95;;;;;;;20.48;42.08;94225.41;5060148;28;20293;-76
2023/03/25 05:50:28;;;;;;;17.30;8.93;;;;;;;20.45;42.42;94215.19;5052601;28;20203;-75
2023/03/25 05:52:56;;;;;;;19.05;9.55;;;;;;;20.70;42.74;94222.53;5060349;28;20248;-74
2023/03/25 05:55:24;;;;;;;16.55;9.30;;;;;;;20.98;41.88;94219.59;5056478;28;20230;-73
2023/03/25 05:57:51;;;;;;;15.93;10.13;;;;;;;21.19;41.20;94213.97;5058424;28;20208;-74
2023/03/25 06:00:20;;;;;;;12.70;9.02;;;;;;;21.70;39.63;94215.13;5056176;28;20204;-74
2023/03/25 06:02:47;;;;;;;16.48;10.77;;;;;;;22.63;38.18;94210.13;5061796;28;20238;-73
2023/03/25 06:05:15;;;;;;;18.35;9.02;;;;;;;22.97;36.91;94218.38;5052928;28;20632;-73
2023/03/25 06:07:44;;;;;;;10.05;6.40;;;;;;;23.16;34.89;94214.16;5057020;28;20196;-74
2023/03/25 06:10:15;;;;;;;9.10;6.55;;;;;;;23.28;34.32;94208.03;5063046;28;20215;-74
2023/03/25 06:12:44;;;;;;;9.25;6.03;;;;;;;23.59;33.54;94202.44;5062843;28;20684;-74
2023/03/25 06:15:12;;;;;;;11.45;6.70;;;;;;;23.94;33.52;94204.56;5056057;28;20211;-75
2023/03/25 06:17:40;;;;;;;8.57;5.47;;;;;;;23.91;33.05;94202.66;5055131;28;20207;-74
2023/03/25 06:20:11;;;;;;;10.23;5.13;;;;;;;23.85;32.02;94204.34;5069068;28;20307;-73
2023/03/25 06:22:38;;;;;;;8.10;5.63;;;;;;;23.66;32.59;94194.00;5053875;28;20294;-74
2023/03/25 06:25:06;;;;;;;8.15;5.88;;;;;;;23.98;32.24;94191.44;5058442;28;20207;-74
2023/03/25 06:27:33;;;;;;;8.75;6.10;;;;;;;23.81;32.30;94198.06;5060406;28;20641;-74
2023/03/25 06:30:03;;;;;;;9.07;5.75;;;;;;;24.25;31.81;94198.88;5057597;28;20203;-74
2023/03/25 06:32:30;;;;;;;7.90;5.70;;;;;;;24.30;31.81;94195.63;5065829;28;20207;-75
2023/03/25 06:34:57;;;;;;;8.07;5.82;;;;;;;24.12;31.78;94206.22;5049378;28;20250;-74
2023/03/25 06:37:25;;;;;;;8.45;5.93;;;;;;;23.85;31.81;94206.31;5062157;28;20312;-74
2023/03/25 06:39:55;;;;;;;9.02;6.30;;;;;;;22.81;33.49;94215.47;5056901;28;20293;-74
2023/03/25 06:42:22;;;;;;;10.57;6.60;;;;;;;21.40;35.61;94220.50;5055628;28;20287;-75
2023/03/25 06:44:49;;;;;;;11.00;7.07;;;;;;;20.90;36.67;94226.34;5058355;28;20275;-76
2023/03/25 06:47:17;;;;;;;12.68;7.85;;;;;;;21.08;36.69;94218.75;5062101;28;20208;-74
2023/03/25 06:49:44;;;;;;;14.45;7.88;;;;;;;21.42;36.39;94220.88;5059552;28;20199;-74
2023/03/25 06:52:11;;;;;;;9.18;6.68;;;;;;;20.92;36.67;94223.97;5055204;28;20206;-75
2023/03/25 06:54:38;;;;;;;12.35;7.80;;;;;;;19.98;38.66;94235.75;5056534;28;20693;-75
2023/03/25 06:57:06;;;;;;;10.23;7.15;;;;;;;21.20;37.64;94226.56;5062098;28;20293;-74
2023/03/25 06:59:32;;;;;;;14.25;8.73;;;;;;;20.63;37.89;94231.63;5060427;28;20285;-73
2023/03/25 07:01:59;;;;;;;11.70;7.90;;;;;;;21.46;36.75;94232.63;5055165;28;20198;-74
2023/03/25 07:04:27;;;;;;;9.02;6.97;;;;;;;20.50;37.80;94233.25;5061249;28;20625;-73
2023/03/25 07:06:54;;;;;;;11.85;7.07;;;;;;;20.77;37.80;94241.78;5057242;28;20188;-74
2023/03/25 07:09:21;;;;;;;13.50;7.13;;;;;;;22.24;36.01;94232.72;5058167;28;20280;-73
2023/03/25 07:11:48;;;;;;;16.83;7.40;;;;;;;22.18;35.79;94228.03;5056734;28;20245;-72
2023/03/25 07:14:15;;;;;;;14.00;7.22;;;;;;;22.16;35.62;94213.88;5057753;28;20244;-73
2023/03/25 07:16:41;;;;;;;11.13;6.95;;;;;;;22.19;35.65;94213.03;5051824;28;20226;-72
2023/03/25 07:19:08;;;;;;;8.80;7.32;;;;;;;22.36;35.31;94211.28;5058894;28;20238;-71
2023/03/25 07:21:36;;;;;;;11.93;7.38;;;;;;;22.45;35.44;94206.81;5055237;28;20194;-72
2023/03/25 07:24:03;;;;;;;15.63;9.02;;;;;;;22.22;35.69;94207.50;5056757;28;20199;-72
2023/03/25 07:26:33;;;;;;;14.52;8.48;;;;;;;20.63;38.55;94222.59;5056212;28;20195;-73
2023/03/25 07:29:00;;;;;;;13.57;8.27;;;;;;;19.93;40.47;94222.44;5056892;28;20199;-72
2023/03/25 07:31:26;;;;;;;13.55;9.50;;;;;;;20.45;39.07;94231.69;5046646;28;20206;-73
2023/03/25 07:33:54;;;;;;;13.80;9.18;;;;;;;19.94;40.01;94231.47;5057962;28;20249;-76
2023/03/25 07:36:22;;;;;;;17.15;10.75;;;;;;;18.60;43.14;94236.50;5054706;28;20314;-72
2023/03/25 07:38:50;;;;;;;20.15;10.50;;;;;;;18.48;44.40;94229.38;5057226;28;20210;-74
2023/03/25 07:41:17;;;;;;;13.32;9.68;;;;;;;18.96;43.27;94226.41;5054629;28;20203;-74
2023/03/25 07:43:44;;;;;;;18.20;10.10;;;;;;;18.44;43.99;94233.31;5059359;28;20191;-73
2023/03/25 07:46:12;;;;;;;14.65;9.85;;;;;;;19.34;42.71;94215.81;5064208;28;20191;-74
2023/03/25 07:48:40;;;;;;;19.73;11.13;;;;;;;19.38;43.01;94213.84;5054643;28;20665;-76
2023/03/25 07:51:07;;;;;;;17.40;11.90;;;;;;;19.08;43.36;94217.00;5054291;28;20199;-75
2023/03/25 07:53:37;;;;;;;20.55;10.65;;;;;;;18.75;44.77;94215.38;5057707;28;20667;-77
2023/03/25 07:56:06;;;;;;;16.30;10.32;;;;;;;18.99;44.30;94209.16;5055234;28;20231;-75
2023/03/25 07:58:33;;;;;;;21.23;11.75;;;;;;;18.71;44.38;94209.13;5052579;28;20196;-75
2023/03/25 08:01:00;;;;;;;23.00;11.93;;;;;;;17.43;47.13;94208.50;5050200;28;20210;-77
2023/03/25 08:03:27;;;;;;;23.88;13.02;;;;;;;17.66;47.43;94200.03;5056985;28;20249;-78
2023/03/25 08:05:54;;;;;;;20.00;12.70;;;;;;;17.20;48.56;94210.69;5055863;28;20207;-78
2023/03/25 08:08:21;;;;;;;18.38;12.10;;;;;;;17.30;49.23;94205.28;5059878;28;20239;-77
2023/03/25 08:10:48;;;;;;;20.42;12.80;;;;;;;17.44;48.74;94204.59;5058742;28;20237;-74
2023/03/25 08:13:16;;;;;;;20.25;12.27;;;;;;;16.85;49.70;94201.00;5049367;28;20203;-77
2023/03/25 08:15:43;;;;;;;21.40;13.02;;;;;;;17.10;49.78;94189.47;5058997;28;20595;-76
2023/03/25 08:18:10;;;;;;;19.75;12.10;;;;;;;17.50;48.99;94197.56;5047701;28;20243;-75
2023/03/25 08:20:36;;;;;;;21.80;12.60;;;;;;;17.46;49.78;94191.31;5058110;28;20194;-75
2023/03/25 08:23:09;;;;;;;22.10;13.02;;;;;;;17.57;48.37;94197.63;5048222;28;20652;-75
2023/03/25 08:25:36;;;;;;;20.20;12.38;;;;;;;17.53;48.97;94180.38;5059592;28;20661;-76
2023/03/25 08:28:03;;;;;;;21.08;12.18;;;;;;;17.17;49.93;94189.53;5053010;28;20768;-75
2023/03/25 08:30:36;;;;;;;20.65;12.05;;;;;;;17.48;50.16;94183.50;5050240;28;20196;-76
2023/03/25 08:33:03;;;;;;;20.73;11.93;;;;;;;17.87;48.63;94186.47;5053828;28;20709;-75
2023/03/25 08:35:30;;;;;;;19.42;12.43;;;;;;;17.66;48.60;94189.88;5053426;28;20211;-76
2023/03/25 08:38:00;;;;;;;21.35;12.63;;;;;;;17.63;49.51;94190.63;5059664;28;20230;-77
2023/03/25 08:40:27;;;;;;;20.00;12.27;;;;;;;18.13;47.49;94182.66;5046977;28;20202;-77
2023/03/25 08:42:54;;;;;;;18.52;10.15;;;;;;;18.69;46.48;94164.81;5062972;28;20252;-78
2023/03/25 08:45:21;;;;;;;20.35;12.02;;;;;;;17.94;47.99;94166.53;5051228;28;20504;-76
2023/03/25 08:47:49;;;;;;;17.20;11.90;;;;;;;18.39;47.30;94160.41;5053140;28;20568;-77
2023/03/25 08:50:16;;;;;;;21.75;11.73;;;;;;;18.96;46.65;94159.72;5062707;28;20210;-76
2023/03/25 08:52:43;;;;;;;18.13;11.20;;;;;;;18.93;46.31;94161.28;5068430;28;20242;-76
2023/03/25 08:55:10;;;;;;;18.90;10.80;;;;;;;18.87;45.97;94162.84;5057333;28;20203;-77
2023/03/25 08:57:38;;;;;;;19.13;11.88;;;;;;;18.85;46.61;94154.25;5060997;28;20709;-75
2023/03/25 09:00:07;;;;;;;21.88;11.43;;;;;;;18.06;47.55;94177.13;5057493;28;20212;-75
2023/03/25 09:02:34;;;;;;;17.70;11.00;;;;;;;17.63;48.87;94179.69;5056732;28;20277;-73
2023/03/25 09:05:03;;;;;;;19.77;11.63;;;;;;;17.91;48.55;94170.03;5052098;28;20220;-73
2023/03/25 09:07:29;;;;;;;20.73;10.38;;;;;;;17.86;48.33;94159.47;5055686;28;20227;-73
2023/03/25 09:09:56;;;;;;;19.52;10.93;;;;;;;18.73;46.17;94147.16;5065757;28;20204;-73
2023/03/25 09:12:23;;;;;;;21.25;11.25;;;;;;;18.86;45.90;94144.81;5061410;28;20203;-73
2023/03/25 09:14:50;;;;;;;21.27;11.00;;;;;;;18.73;46.36;94132.66;5058331;28;20196;-77
2023/03/25 09:17:16;;;;;;;21.63;11.25;;;;;;;18.62;46.29;94140.09;5060480;28;20701;-76
2023/03/25 09:19:43;;;;;;;19.88;10.52;;;;;;;18.65;47.36;94144.81;5058411;28;20227;-75
2023/03/25 09:22:11;;;;;;;18.30;11.23;;;;;;;19.12;45.05;94130.72;5056168;28;20207;-75
2023/03/25 09:24:39;;;;;;;17.58;10.75;;;;;;;19.56;44.30;94132.19;5068698;28;20200;-75
2023/03/25 09:27:06;;;;;;;18.60;10.48;;;;;;;19.97;43.14;94126.16;5058428;28;20207;-75
2023/03/25 09:29:33;;;;;;;19.80;10.38;;;;;;;19.98;43.24;94125.00;5060756;28;20202;-76
2023/03/25 09:32:00;;;;;;;18.60;9.75;;;;;;;18.82;44.76;94119.34;5059929;28;20884;-75
2023/03/25 09:34:28;;;;;;;17.92;10.38;;;;;;;18.13;46.56;94124.31;5057393;28;20646;-75
2023/03/25 09:36:56;;;;;;;18.50;10.25;;;;;;;18.63;46.15;94125.19;5062741;28;20242;-75
2023/03/25 09:39:24;;;;;;;17.23;10.23;;;;;;;18.53;46.33;94121.25;5056173;28;20210;-75
2023/03/25 09:42:04;;;;;;;16.83;10.45;;;;;;;19.04;45.84;94126.38;5056503;28;20208;-77
2023/03/25 09:44:35;;;;;;;21.83;10.32;;;;;;;19.59;44.88;94119.63;5058516;28;20785;-74
2023/03/25 09:47:04;;;;;;;16.35;9.38;;;;;;;19.92;44.85;94115.59;5056175;28;20206;-75
2023/03/25 09:49:39;;;;;;;17.38;9.85;;;;;;;20.99;42.69;94105.50;5060062;28;20230;-77
2023/03/25 09:52:12;;;;;;;15.68;9.55;;;;;;;20.38;42.70;94110.66;5062586;28;20210;-76
2023/03/25 09:54:46;;;;;;;19.45;9.98;;;;;;;20.44;42.86;94108.28;5051143;28;20195;-76
2023/03/25 09:57:20;;;;;;;18.40;10.50;;;;;;;19.90;43.52;94112.47;5060351;28;21058;-76
2023/03/25 09:59:51;;;;;;;18.98;9.90;;;;;;;20.42;43.61;94094.91;5055826;28;20536;-77
2023/03/25 10:02:32;;;;;;;17.52;10.00;;;;;;;20.82;42.29;94089.91;5060522;28;20702;-76
2023/03/25 10:05:20;;;;;;;15.65;9.65;;;;;;;21.26;42.88;94092.69;5054807;28;20228;-77
2023/03/25 10:08:08;;;;;;;17.92;9.77;;;;;;;21.01;40.87;94086.59;5062521;28;20245;-75
2023/03/25 10:10:43;;;;;;;12.02;7.15;;;;;;;21.52;39.00;94090.47;5058444;28;20260;-76
2023/03/25 10:13:16;;;;;;;10.48;7.13;;;;;;;20.79;40.92;94074.19;5059092;28;20210;-77
2023/03/25 10:15:51;;;;;;;11.02;7.30;;;;;;;20.72;40.41;94079.78;5063268;28;20203;-77
2023/03/25 10:18:45;;;;;;;11.00;6.63;;;;;;;21.36;39.24;94074.47;5054808;28;20238;-77
2023/03/25 10:21:19;;;;;;;7.55;4.88;;;;;;;21.19;39.36;94064.41;5054073;28;20301;-77
2023/03/25 10:23:55;;;;;;;8.48;4.47;;;;;;;20.94;38.87;94061.88;5069017;28;20597;-84
2023/03/25 10:26:27;;;;;;;6.72;3.92;;;;;;;20.84;38.47;94058.03;5063368;28;20207;-79
2023/03/25 10:29:00;;;;;;;6.03;4.13;;;;;;;20.83;38.56;94052.94;5059229;28;20218;-76
2023/03/25 10:31:31;;;;;;;5.55;3.90;;;;;;;20.65;38.02;94053.06;5065325;28;20199;-77
2023/03/25 10:34:05;;;;;;;5.38;3.72;;;;;;;20.33;38.86;94053.31;5055271;28;20288;-75
2023/03/25 10:36:34;;;;;;;6.88;4.60;;;;;;;20.62;39.04;94058.63;5059690;28;20265;-75
2023/03/25 10:39:04;;;;;;;7.18;3.92;;;;;;;20.73;38.29;94045.56;5062143;28;20227;-75
2023/03/25 10:41:36;;;;;;;7.43;3.78;;;;;;;20.15;38.53;94031.41;5058602;28;20210;-77
2023/03/25 10:44:09;;;;;;;6.20;3.92;;;;;;;20.51;38.00;94031.94;5055234;28;20213;-75
2023/03/25 10:46:46;;;;;;;4.80;3.38;;;;;;;20.40;37.84;94030.47;5056666;28;20631;-78
2023/03/25 10:49:16;;;;;;;4.13;3.10;;;;;;;20.37;37.63;94034.81;5048929;28;20206;-77
2023/03/25 10:51:44;;;;;;;4.88;3.20;;;;;;;20.27;37.34;94032.91;5052068;28;20281;-77
2023/03/25 10:54:16;;;;;;;5.30;3.17;;;;;;;19.90;38.21;94035.50;5058576;28;20611;-85
2023/03/25 10:56:55;;;;;;;7.47;3.55;;;;;;;20.16;38.20;94032.19;5066326;28;20207;-77
2023/03/25 10:59:28;;;;;;;4.78;3.13;;;;;;;20.71;37.88;94012.13;5049932;28;20207;-78
2023/03/25 11:01:56;;;;;;;6.68;3.72;;;;;;;21.00;37.48;94018.16;5067197;28;20234;-81
2023/03/25 11:04:30;;;;;;;6.70;3.40;;;;;;;20.76;37.77;94011.72;5057833;28;20219;-78
2023/03/25 11:06:59;;;;;;;7.00;3.88;;;;;;;20.46;38.57;94001.34;5062281;28;20689;-78
2023/03/25 11:09:29;;;;;;;7.97;3.70;;;;;;;21.18;37.82;94008.50;5047900;28;20211;-77
2023/03/25 11:12:00;;;;;;;5.15;3.45;;;;;;;21.46;37.95;93998.38;5046853;28;20200;-77
2023/03/25 11:14:28;;;;;;;8.23;4.43;;;;;;;21.84;38.64;93994.38;5050861;28;20287;-77
2023/03/25 11:16:58;;;;;;;6.65;4.35;;;;;;;22.06;38.27;93977.53;5050832;28;20682;-78
2023/03/25 11:19:28;;;;;;;7.18;3.95;;;;;;;22.32;37.40;93979.50;5060764;28;20242;-75
2023/03/25 11:21:58;;;;;;;5.28;3.75;;;;;;;22.29;37.43;93980.31;5055240;28;20245;-78
2023/03/25 11:24:32;;;;;;;10.18;4.10;;;;;;;22.00;37.74;93979.22;5049901;28;20212;-77
2023/03/25 11:27:01;;;;;;;7.85;3.97;;;;;;;21.79;38.25;93969.22;5048191;28;20295;-78
2023/03/25 11:29:29;;;;;;;4.95;3.20;;;;;;;21.14;38.11;93973.94;5051236;28;20253;-80
2023/03/25 11:32:04;;;;;;;6.25;3.95;;;;;;;21.07;38.53;93968.50;5054433;28;20235;-80
2023/03/25 11:34:31;;;;;;;10.20;4.90;;;;;;;20.93;39.16;93963.94;5062708;28;20297;-76
2023/03/25 11:37:03;;;;;;;9.15;4.13;;;;;;;21.05;38.75;93966.16;5066246;28;20929;-77
2023/03/25 11:39:35;;;;;;;9.18;3.92;;;;;;;21.28;38.42;93957.28;5059746;28;20195;-75
2023/03/25 11:42:21;;;;;;;3.53;3.13;;;;;;;21.06;38.64;93956.69;5061143;28;20564;-75